createdAt,value
2017-11-12T00:00:29.450Z,6.20
2017-11-12T00:02:56.945Z,6.10
2017-11-12T00:05:24.473Z,6.20
2017-11-12T00:07:51.986Z,6.00
2017-11-12T00:10:19.497Z,6.00
2017-11-12T00:12:47.782Z,6.10
2017-11-12T00:15:15.341Z,6.10
2017-11-12T00:17:43.606Z,6.10
2017-11-12T00:20:11.893Z,6.20
2017-11-12T00:22:40.192Z,6.20
2017-11-12T00:25:07.707Z,6.10
2017-11-12T00:27:35.982Z,6.00
2017-11-12T00:30:04.277Z,6.00
2017-11-12T00:32:31.779Z,6.00
2017-11-12T00:34:59.303Z,6.00
2017-11-12T00:37:26.806Z,5.90
2017-11-12T00:39:54.422Z,5.90
2017-11-12T00:42:21.938Z,5.90
2017-11-12T00:44:49.424Z,5.90
2017-11-12T00:47:16.959Z,5.90
2017-11-12T00:49:45.218Z,5.90
2017-11-12T00:52:12.766Z,5.90
2017-11-12T00:54:40.254Z,5.90
2017-11-12T00:57:08.511Z,5.90
2017-11-12T00:59:36.037Z,5.90
2017-11-12T01:02:03.542Z,5.80
2017-11-12T01:04:31.831Z,5.90
2017-11-12T01:06:59.350Z,5.80
2017-11-12T01:09:26.850Z,5.80
2017-11-12T01:11:54.346Z,5.80
2017-11-12T01:14:21.874Z,5.90
2017-11-12T01:16:49.398Z,5.80
2017-11-12T01:19:17.649Z,5.90
2017-11-12T01:21:45.146Z,5.80
2017-11-12T01:24:12.669Z,5.90
2017-11-12T01:26:40.187Z,5.90
2017-11-12T01:29:07.721Z,5.90
2017-11-12T01:31:35.202Z,5.90
2017-11-12T01:34:02.711Z,5.90
2017-11-12T01:36:31.002Z,5.80
2017-11-12T01:38:59.266Z,5.80
2017-11-12T01:41:27.554Z,5.90
2017-11-12T01:43:55.076Z,5.80
2017-11-12T01:46:22.591Z,5.90
2017-11-12T01:48:50.102Z,5.80
2017-11-12T01:51:17.619Z,5.80
2017-11-12T01:53:45.106Z,5.80
2017-11-12T01:56:12.616Z,5.80
2017-11-12T01:58:40.123Z,5.70
2017-11-12T02:01:07.637Z,5.80
2017-11-12T02:03:35.128Z,5.80
2017-11-12T02:06:02.653Z,5.60
2017-11-12T02:08:30.134Z,5.70
2017-11-12T02:10:57.658Z,5.80
2017-11-12T02:13:25.157Z,5.90
2017-11-12T02:15:52.671Z,5.70
2017-11-12T02:18:20.169Z,5.70
2017-11-12T02:20:47.691Z,5.60
2017-11-12T02:23:15.210Z,5.60
2017-11-12T02:25:43.482Z,5.50
2017-11-12T02:28:11.769Z,5.50
2017-11-12T02:30:39.237Z,5.50
2017-11-12T02:33:06.773Z,5.60
2017-11-12T02:35:35.024Z,5.60
2017-11-12T02:38:02.543Z,5.50
2017-11-12T02:40:30.029Z,5.60
2017-11-12T02:42:57.557Z,5.60
2017-11-12T02:45:25.077Z,5.60
2017-11-12T02:47:53.333Z,5.60
2017-11-12T02:50:20.846Z,5.60
2017-11-12T02:52:48.331Z,5.60
2017-11-12T02:55:15.858Z,5.50
2017-11-12T02:57:43.360Z,5.50
2017-11-12T03:00:10.866Z,5.50
2017-11-12T03:02:38.384Z,5.50
2017-11-12T03:05:06.634Z,5.40
2017-11-12T03:07:34.164Z,5.40
2017-11-12T03:10:01.675Z,5.40
2017-11-12T03:12:30.199Z,5.40
2017-11-12T03:14:57.709Z,5.40
2017-11-12T03:17:25.998Z,5.50
2017-11-12T03:19:53.494Z,5.50
2017-11-12T03:22:20.979Z,5.50
2017-11-12T03:24:48.506Z,5.60
2017-11-12T03:27:15.997Z,5.60
2017-11-12T03:29:43.523Z,5.60
2017-11-12T03:32:11.021Z,5.70
2017-11-12T03:34:39.289Z,5.60
2017-11-12T03:37:06.818Z,5.50
2017-11-12T03:39:34.305Z,5.60
2017-11-12T03:42:01.839Z,5.70
2017-11-12T03:44:29.379Z,5.70
2017-11-12T03:46:56.868Z,5.70
2017-11-12T03:49:24.404Z,5.70
2017-11-12T03:51:51.898Z,5.80
2017-11-12T03:54:20.189Z,5.80
2017-11-12T03:56:47.677Z,5.80
2017-11-12T03:59:15.175Z,5.70
2017-11-12T04:01:42.700Z,5.60
2017-11-12T04:04:10.189Z,5.50
2017-11-12T04:06:38.486Z,5.70
2017-11-12T04:09:06.748Z,5.60
2017-11-12T04:11:35.039Z,5.50
2017-11-12T04:14:04.099Z,5.60
2017-11-12T04:16:31.596Z,5.60
2017-11-12T04:18:59.110Z,5.70
2017-11-12T04:21:26.598Z,5.70
2017-11-12T04:23:54.888Z,5.60
2017-11-12T04:26:22.384Z,5.60
2017-11-12T04:28:49.907Z,5.50
2017-11-12T04:31:17.403Z,5.60
2017-11-12T04:33:44.924Z,5.70
2017-11-12T04:36:12.441Z,5.70
2017-11-12T04:38:40.705Z,5.60
2017-11-12T04:41:08.215Z,5.60
2017-11-12T04:43:35.705Z,5.60
2017-11-12T04:46:03.196Z,5.70
2017-11-12T04:48:31.476Z,5.80
2017-11-12T04:50:59.736Z,5.80
2017-11-12T04:53:28.048Z,5.80
2017-11-12T04:55:55.537Z,5.80
2017-11-12T04:58:23.029Z,5.80
2017-11-12T05:00:51.310Z,5.80
2017-11-12T05:03:19.569Z,5.80
2017-11-12T05:05:47.084Z,5.80
2017-11-12T05:08:14.585Z,5.70
2017-11-12T05:10:42.862Z,5.80
2017-11-12T05:13:11.127Z,5.70
2017-11-12T05:15:38.642Z,5.70
2017-11-12T05:18:06.162Z,5.70
2017-11-12T05:20:34.461Z,5.70
2017-11-12T05:23:01.963Z,5.70
2017-11-12T05:25:29.461Z,5.60
2017-11-12T05:27:56.980Z,5.70
2017-11-12T05:30:24.469Z,5.70
2017-11-12T05:32:51.998Z,5.70
2017-11-12T05:35:19.497Z,5.80
2017-11-12T05:37:46.997Z,5.80
2017-11-12T05:40:14.520Z,5.90
2017-11-12T05:42:42.063Z,5.80
2017-11-12T05:45:09.649Z,5.90
2017-11-12T05:47:37.143Z,5.90
2017-11-12T05:50:04.661Z,5.80
2017-11-12T05:52:32.970Z,5.70
2017-11-12T05:55:00.490Z,5.70
2017-11-12T05:57:27.975Z,5.70
2017-11-12T05:59:55.501Z,5.70
2017-11-12T06:02:23.065Z,5.70
2017-11-12T06:04:50.562Z,5.70
2017-11-12T06:07:18.080Z,5.70
2017-11-12T06:09:45.572Z,5.80
2017-11-12T06:12:13.088Z,5.80
2017-11-12T06:14:40.588Z,5.70
2017-11-12T06:17:08.111Z,5.80
2017-11-12T06:19:35.621Z,5.70
2017-11-12T06:22:03.906Z,5.70
2017-11-12T06:24:31.426Z,5.70
2017-11-12T06:26:58.922Z,5.70
2017-11-12T06:29:26.437Z,5.70
2017-11-12T06:31:53.925Z,5.60
2017-11-12T06:34:22.210Z,5.60
2017-11-12T06:36:49.726Z,5.60
2017-11-12T06:39:17.246Z,5.60
2017-11-12T06:41:44.742Z,5.60
2017-11-12T06:44:12.289Z,5.60
2017-11-12T06:46:39.782Z,5.70
2017-11-12T06:49:08.047Z,5.80
2017-11-12T06:51:36.341Z,5.70
2017-11-12T06:54:03.837Z,5.70
2017-11-12T06:56:31.362Z,5.70
2017-11-12T06:58:58.849Z,5.70
2017-11-12T07:01:26.390Z,5.70
2017-11-12T07:03:53.879Z,5.70
2017-11-12T07:06:21.376Z,5.70
2017-11-12T07:08:50.357Z,5.70
2017-11-12T07:11:18.677Z,5.70
2017-11-12T07:13:46.173Z,5.70
2017-11-12T07:16:13.696Z,5.80
2017-11-12T07:18:41.216Z,5.90
2017-11-12T07:21:08.744Z,5.80
2017-11-12T07:23:36.233Z,5.70
2017-11-12T07:26:03.750Z,5.70
2017-11-12T07:28:32.039Z,5.80
2017-11-12T07:30:59.565Z,5.80
2017-11-12T07:33:27.096Z,5.80
2017-11-12T07:35:54.586Z,5.80
2017-11-12T07:38:22.075Z,5.90
2017-11-12T07:40:50.368Z,5.90
2017-11-12T07:43:17.860Z,5.80
2017-11-12T07:45:45.402Z,6.00
2017-11-12T07:48:12.891Z,6.10
2017-11-12T07:50:40.424Z,6.10
2017-11-12T07:53:07.913Z,6.20
2017-11-12T07:55:35.444Z,6.30
2017-11-12T07:58:02.942Z,6.20
2017-11-12T08:00:30.433Z,6.30
2017-11-12T08:02:57.961Z,6.30
2017-11-12T08:05:26.220Z,6.20
2017-11-12T08:07:53.727Z,6.20
2017-11-12T08:10:21.244Z,6.20
2017-11-12T08:12:49.528Z,6.10
2017-11-12T08:15:17.809Z,6.00
2017-11-12T08:17:46.071Z,6.10
2017-11-12T08:20:14.353Z,6.10
2017-11-12T08:22:42.601Z,6.10
2017-11-12T08:25:10.119Z,6.10
2017-11-12T08:27:37.607Z,6.00
2017-11-12T08:30:05.127Z,5.90
2017-11-12T08:32:32.647Z,5.90
2017-11-12T08:35:00.931Z,5.80
2017-11-12T08:37:28.413Z,5.80
2017-11-12T08:39:55.932Z,5.70
2017-11-12T08:42:23.415Z,5.70
2017-11-12T08:44:50.924Z,5.60
2017-11-12T08:47:18.412Z,5.70
2017-11-12T08:49:46.718Z,5.60
2017-11-12T08:52:14.280Z,5.60
2017-11-12T08:54:41.774Z,5.60
2017-11-12T08:57:09.293Z,5.50
2017-11-12T08:59:36.790Z,5.50
2017-11-12T09:02:04.311Z,5.50
2017-11-12T09:04:31.824Z,5.60
2017-11-12T09:07:00.102Z,5.60
2017-11-12T09:09:28.353Z,5.40
2017-11-12T09:11:55.861Z,5.40
2017-11-12T09:14:23.353Z,5.40
2017-11-12T09:16:50.925Z,5.40
2017-11-12T09:19:18.438Z,5.50
2017-11-12T09:21:47.975Z,5.60
2017-11-12T09:24:16.450Z,5.70
2017-11-12T09:26:49.079Z,5.50
2017-11-12T09:29:16.637Z,5.50
2017-11-12T09:31:44.131Z,5.50
2017-11-12T09:34:11.705Z,5.60
2017-11-12T09:36:39.585Z,5.60
2017-11-12T09:39:07.155Z,5.70
2017-11-12T09:41:35.417Z,5.80
2017-11-12T09:44:02.995Z,5.80
2017-11-12T09:46:31.280Z,5.90
2017-11-12T09:48:58.775Z,5.90
2017-11-12T09:51:26.320Z,6.10
2017-11-12T09:53:53.829Z,6.10
2017-11-12T09:56:28.364Z,6.10
2017-11-12T09:58:57.739Z,6.10
2017-11-12T10:01:25.264Z,6.20
2017-11-12T10:03:52.776Z,6.10
2017-11-12T10:09:13.839Z,6.20
2017-11-12T10:11:56.594Z,6.30
2017-11-12T10:14:24.178Z,6.20
2017-11-12T10:16:52.463Z,6.20
2017-11-12T10:19:36.412Z,6.10
2017-11-12T10:22:09.927Z,6.20
2017-11-12T10:24:38.432Z,6.10
2017-11-12T10:27:10.634Z,6.10
2017-11-12T10:29:38.177Z,6.10
2017-11-12T10:32:05.665Z,6.20
2017-11-12T10:34:33.217Z,6.20
2017-11-12T10:37:02.833Z,6.20
2017-11-12T10:39:30.775Z,6.30
2017-11-12T10:42:00.546Z,6.20
2017-11-12T10:44:28.995Z,6.20
2017-11-12T10:47:02.514Z,6.20
2017-11-12T10:49:43.932Z,6.10
2017-11-12T10:52:11.473Z,6.10
2017-11-12T10:54:39.587Z,6.10
2017-11-12T10:57:07.874Z,6.00
2017-11-12T10:59:35.384Z,5.90
2017-11-12T11:02:03.954Z,6.00
2017-11-12T11:04:32.409Z,6.00
2017-11-12T11:06:59.934Z,6.00
2017-11-12T11:09:33.977Z,5.90
2017-11-12T11:12:01.503Z,5.90
2017-11-12T11:14:33.611Z,5.90
2017-11-12T11:17:01.141Z,5.90
2017-11-12T11:19:28.705Z,6.00
2017-11-12T11:21:56.259Z,6.00
2017-11-12T11:24:23.745Z,6.00
2017-11-12T11:26:53.740Z,6.00
2017-11-12T11:29:21.353Z,6.10
2017-11-12T11:31:48.845Z,6.20
2017-11-12T11:34:16.375Z,6.30
2017-11-12T11:36:44.696Z,6.20
2017-11-12T11:39:12.196Z,6.20
2017-11-12T11:41:39.769Z,6.20
2017-11-12T11:47:00.561Z,6.20
2017-11-12T11:49:28.098Z,6.20
2017-11-12T11:51:55.646Z,6.10
2017-11-12T11:54:23.155Z,6.10
2017-11-12T11:56:50.729Z,6.00
2017-11-12T11:59:18.274Z,6.00
2017-11-12T12:01:46.571Z,6.20
2017-11-12T12:04:14.082Z,6.20
2017-11-12T12:06:48.224Z,6.20
2017-11-12T12:09:16.485Z,6.20
2017-11-12T12:11:44.762Z,6.30
2017-11-12T12:14:13.073Z,6.30
2017-11-12T12:16:40.609Z,6.30
2017-11-12T12:19:08.749Z,6.30
2017-11-12T12:21:36.239Z,6.40
2017-11-12T12:24:03.766Z,6.40
2017-11-12T12:26:31.330Z,6.50
2017-11-12T12:28:58.854Z,6.50
2017-11-12T12:31:26.381Z,6.50
2017-11-12T12:33:53.895Z,6.50
2017-11-12T12:36:21.394Z,6.50
2017-11-12T12:38:48.910Z,6.60
2017-11-12T12:41:16.482Z,6.60
2017-11-12T12:43:44.069Z,6.70
2017-11-12T12:46:12.484Z,6.70
2017-11-12T12:48:39.991Z,6.60
2017-11-12T12:51:07.509Z,6.60
2017-11-12T12:53:35.046Z,6.50
2017-11-12T12:56:02.562Z,6.60
2017-11-12T12:58:30.115Z,6.50
2017-11-12T13:00:58.405Z,6.40
2017-11-12T13:03:25.938Z,6.40
2017-11-12T13:05:54.214Z,6.40
2017-11-12T13:08:22.551Z,6.40
2017-11-12T13:10:50.085Z,6.40
2017-11-12T13:13:17.581Z,6.30
2017-11-12T13:15:45.170Z,6.40
2017-11-12T13:18:13.461Z,6.60
2017-11-12T13:23:51.827Z,6.60
2017-11-12T13:26:19.382Z,6.70
2017-11-12T14:20:42.405Z,6.20
2017-11-12T14:29:10.108Z,6.10
2017-11-12T14:31:41.383Z,5.90
2017-11-12T14:34:10.032Z,5.90
2017-11-12T14:36:38.560Z,5.80
2017-11-12T14:39:06.197Z,5.80
2017-11-12T14:41:33.800Z,5.80
2017-11-12T14:44:01.354Z,5.80
2017-11-12T14:46:28.842Z,5.80
2017-11-12T14:48:56.358Z,5.70
2017-11-12T14:51:23.858Z,5.70
2017-11-12T14:53:52.114Z,5.60
2017-11-12T14:56:20.438Z,5.50
2017-11-12T14:58:47.951Z,5.40
2017-11-12T15:01:28.678Z,5.40
2017-11-12T15:03:56.121Z,5.40
2017-11-12T15:06:23.657Z,5.50
2017-11-12T15:08:51.253Z,5.50
2017-11-12T15:11:18.759Z,5.50
2017-11-12T15:13:46.257Z,5.50
2017-11-12T15:16:13.770Z,5.50
2017-11-12T15:18:41.225Z,5.50
2017-11-12T15:21:08.755Z,5.50
2017-11-12T15:23:37.047Z,5.50
2017-11-12T15:26:05.337Z,5.40
2017-11-12T15:28:36.300Z,5.40
2017-11-12T15:31:03.817Z,5.40
2017-11-12T15:33:31.335Z,5.40
2017-11-12T15:35:58.809Z,5.40
2017-11-12T15:38:26.322Z,5.30
2017-11-12T15:40:53.812Z,5.40
2017-11-12T15:43:21.293Z,5.30
2017-11-12T15:45:48.793Z,5.40
2017-11-12T15:48:17.785Z,5.30
2017-11-12T15:50:45.231Z,5.30
2017-11-12T15:53:12.780Z,5.30
2017-11-12T15:55:40.272Z,5.30
2017-11-12T15:58:07.757Z,5.30
2017-11-12T16:00:35.315Z,5.30
2017-11-12T16:03:02.814Z,5.30
2017-11-12T16:05:30.325Z,5.20
2017-11-12T16:07:57.830Z,5.20
2017-11-12T16:10:25.313Z,5.20
2017-11-12T16:12:55.423Z,5.30
2017-11-12T16:15:22.995Z,5.30
2017-11-12T16:17:50.505Z,5.30
2017-11-12T16:20:18.749Z,5.30
2017-11-12T16:22:46.253Z,5.30
2017-11-12T16:25:13.777Z,5.20
2017-11-12T16:27:42.036Z,5.20
2017-11-12T16:30:09.586Z,5.20
2017-11-12T16:32:37.646Z,5.10
2017-11-12T16:35:05.096Z,5.10
2017-11-12T16:37:32.689Z,5.10
2017-11-12T16:40:00.944Z,5.00
2017-11-12T16:42:28.451Z,5.00
2017-11-12T16:44:55.977Z,5.10
2017-11-12T16:47:24.230Z,5.00
2017-11-12T16:49:51.763Z,5.00
2017-11-12T16:52:19.282Z,5.00
2017-11-12T16:54:47.537Z,4.90
2017-11-12T16:57:15.018Z,4.90
2017-11-12T16:59:42.530Z,4.90
2017-11-12T17:02:10.017Z,4.90
2017-11-12T17:04:37.507Z,4.90
2017-11-12T17:07:05.015Z,4.90
2017-11-12T17:09:32.497Z,4.90
2017-11-12T17:12:00.741Z,4.80
2017-11-12T17:14:28.248Z,4.80
2017-11-12T17:16:55.734Z,4.90
2017-11-12T17:19:23.217Z,4.80
2017-11-12T17:21:50.728Z,4.80
2017-11-12T17:24:18.216Z,4.80
2017-11-12T17:26:45.701Z,4.80
2017-11-12T17:29:13.969Z,4.80
2017-11-12T17:31:42.213Z,4.70
2017-11-12T17:34:09.698Z,4.70
2017-11-12T17:36:37.991Z,4.70
2017-11-12T17:39:05.485Z,4.70
2017-11-12T17:41:32.994Z,4.80
2017-11-12T17:44:01.289Z,4.80
2017-11-12T17:46:28.789Z,4.80
2017-11-12T17:48:56.264Z,4.90
2017-11-12T17:51:23.797Z,5.00
2017-11-12T17:53:51.278Z,4.90
2017-11-12T17:56:18.794Z,4.90
2017-11-12T17:58:46.327Z,4.90
2017-11-12T18:01:13.827Z,4.80
2017-11-12T18:03:41.323Z,4.80
2017-11-12T18:06:09.609Z,4.90
2017-11-12T18:08:37.100Z,4.90
2017-11-12T18:11:04.604Z,4.90
2017-11-12T18:13:32.129Z,4.90
2017-11-12T18:15:59.655Z,4.90
2017-11-12T18:18:27.136Z,4.80
2017-11-12T18:20:54.633Z,4.80
2017-11-12T18:23:22.906Z,4.80
2017-11-12T18:25:51.164Z,4.80
2017-11-12T18:28:18.678Z,4.80
2017-11-12T18:30:46.168Z,4.80
2017-11-12T18:33:13.691Z,4.80
2017-11-12T18:35:41.173Z,4.90
2017-11-12T18:38:08.663Z,4.90
2017-11-12T18:40:36.968Z,4.80
2017-11-12T18:43:04.489Z,4.80
2017-11-12T18:45:31.978Z,4.80
2017-11-12T18:47:59.518Z,4.80
2017-11-12T18:50:27.782Z,4.80
2017-11-12T18:52:56.039Z,4.80
2017-11-12T18:55:27.206Z,4.80
2017-11-12T18:58:06.170Z,4.70
2017-11-12T19:03:48.216Z,4.70
2017-11-12T19:06:21.418Z,4.80
2017-11-12T19:08:58.833Z,4.80
2017-11-12T19:11:27.096Z,4.80
2017-11-12T19:13:54.621Z,4.80
2017-11-12T19:16:22.119Z,4.80
2017-11-12T19:18:50.569Z,4.70
2017-11-12T19:24:37.530Z,4.70
2017-11-12T19:27:15.688Z,4.80
2017-11-12T19:29:43.218Z,4.80
2017-11-12T19:32:10.708Z,4.80
2017-11-12T19:34:38.195Z,4.70
2017-11-12T19:37:06.469Z,4.70
2017-11-12T19:39:34.742Z,4.70
2017-11-12T19:42:03.022Z,4.80
2017-11-12T19:44:31.335Z,4.80
2017-11-12T19:46:58.854Z,4.80
2017-11-12T19:49:27.114Z,4.80
2017-11-12T19:51:54.637Z,4.80
2017-11-12T19:54:22.126Z,4.80
2017-11-12T19:56:50.432Z,4.70
2017-11-12T19:59:19.389Z,4.70
2017-11-12T20:01:46.899Z,4.70
2017-11-12T20:04:14.437Z,4.80
2017-11-12T20:06:41.939Z,4.90
2017-11-12T20:09:09.468Z,4.90
2017-11-12T20:11:36.967Z,4.90
2017-11-12T20:14:04.510Z,4.90
2017-11-12T20:16:32.609Z,5.00
2017-11-12T20:19:00.929Z,5.00
2017-11-12T20:21:28.429Z,5.00
2017-11-12T20:23:55.943Z,5.00
2017-11-12T20:26:23.466Z,5.00
2017-11-12T20:28:51.718Z,5.00
2017-11-12T20:31:19.248Z,5.00
2017-11-12T20:33:46.747Z,5.00
2017-11-12T20:36:14.266Z,5.00
2017-11-12T20:38:41.803Z,4.90
2017-11-12T20:41:09.285Z,5.00
2017-11-12T20:43:36.799Z,5.00
2017-11-12T20:46:05.057Z,5.00
2017-11-12T20:48:33.377Z,5.00
2017-11-12T20:51:02.326Z,5.00
2017-11-12T20:53:31.326Z,5.00
2017-11-12T20:56:02.307Z,5.00
2017-11-12T20:58:29.793Z,5.00
2017-11-12T21:00:57.331Z,5.10
2017-11-12T21:03:24.814Z,5.00
2017-11-12T21:05:52.349Z,5.00
2017-11-12T21:08:19.837Z,5.00
2017-11-12T21:10:50.069Z,5.00
2017-11-12T21:13:18.355Z,5.10
2017-11-12T21:15:45.837Z,5.00
2017-11-12T21:18:13.448Z,5.00
2017-11-12T21:20:47.727Z,4.90
2017-11-12T21:23:15.309Z,4.90
2017-11-12T21:25:42.803Z,4.90
2017-11-12T21:28:15.042Z,5.00
2017-11-12T21:30:44.282Z,5.00
2017-11-12T21:33:12.602Z,5.00
2017-11-12T21:35:50.798Z,5.00
2017-11-12T21:38:18.336Z,5.00
2017-11-12T21:40:45.839Z,5.00
2017-11-12T21:43:13.373Z,5.10
2017-11-12T21:45:40.904Z,5.10
2017-11-12T21:48:08.870Z,5.10
2017-11-12T21:50:36.381Z,5.10
2017-11-12T21:53:04.674Z,5.10
2017-11-12T21:55:32.165Z,5.10
2017-11-12T21:57:59.684Z,5.10
2017-11-12T22:00:27.937Z,5.00
2017-11-12T22:02:56.207Z,5.00
2017-11-12T22:05:23.722Z,5.00
2017-11-12T22:07:51.210Z,5.10
2017-11-12T22:10:19.114Z,5.10
2017-11-12T22:12:46.590Z,5.00
2017-11-12T22:15:14.083Z,5.00
2017-11-12T22:17:41.609Z,5.00
2017-11-12T22:20:09.105Z,5.00
2017-11-12T22:22:36.609Z,5.00
2017-11-12T22:25:04.129Z,5.10
2017-11-12T22:27:32.385Z,5.10
2017-11-12T22:29:59.869Z,5.00
2017-11-12T22:32:28.105Z,5.10
2017-11-12T22:34:56.455Z,5.10
2017-11-12T22:37:23.971Z,5.10
2017-11-12T22:39:52.224Z,5.00
2017-11-12T22:42:19.776Z,5.00
2017-11-12T22:44:47.262Z,5.00
2017-11-12T22:47:15.547Z,5.10
2017-11-12T22:49:43.793Z,5.00
2017-11-12T22:52:11.281Z,5.00
2017-11-12T22:54:38.789Z,5.00
2017-11-12T22:57:06.284Z,5.10
2017-11-12T22:59:34.633Z,5.00
2017-11-12T23:02:02.080Z,5.00
2017-11-12T23:04:29.631Z,5.00
2017-11-12T23:06:57.150Z,5.00
2017-11-12T23:09:24.645Z,5.00
2017-11-12T23:11:52.673Z,5.00
2017-11-12T23:14:20.200Z,5.00
2017-11-12T23:16:47.689Z,4.90
2017-11-12T23:19:15.213Z,4.90
2017-11-12T23:21:42.705Z,4.90
2017-11-12T23:24:10.189Z,4.90
2017-11-12T23:26:37.716Z,4.90
2017-11-12T23:29:05.157Z,4.90
2017-11-12T23:31:32.675Z,4.90
2017-11-12T23:34:00.195Z,4.90
2017-11-12T23:36:28.099Z,4.90
2017-11-12T23:38:55.612Z,4.90
2017-11-12T23:41:23.122Z,4.80
2017-11-12T23:43:50.616Z,4.80
2017-11-12T23:46:18.098Z,4.90
2017-11-12T23:48:45.663Z,5.00
2017-11-12T23:51:13.161Z,4.90
2017-11-12T23:53:41.435Z,4.90
2017-11-12T23:56:09.718Z,4.80
2017-11-12T23:58:37.974Z,4.80
